Time;durP1;ratioP1;P1;durP2;ratioP2;P2;SDS_P1;SDS_P2;PMS_P1;PMS_P2;Temp;Humidity;BMP_temperature;BMP_pressure;BME280_temperature;BME280_humidity;BME280_pressure;Samples;Min_cycle;Max_cycle;Signal;HPM_P1;HPM_P2
2022/10/14 00:02:58;;;;;;;48.48;32.45;;;;;;;7.61;100.00;99102.30;2223547;80;20969;-91
2022/10/14 00:05:59;;;;;;;46.92;31.73;;;;;;;7.58;100.00;99090.04;2226926;80;21001;-91
2022/10/14 00:09:00;;;;;;;48.15;28.92;;;;;;;7.57;100.00;99100.13;2228884;79;20954;-90
2022/10/14 00:12:01;;;;;;;42.88;28.83;;;;;;;7.53;100.00;99095.72;2202334;80;21041;-91
2022/10/14 00:15:01;;;;;;;46.90;30.77;;;;;;;7.52;100.00;99096.69;2189379;81;21065;-93
2022/10/14 00:18:02;;;;;;;45.00;31.05;;;;;;;7.50;100.00;99090.81;2188374;81;20978;-92
2022/10/14 00:21:03;;;;;;;50.83;31.73;;;;;;;7.49;100.00;99088.34;2204870;80;20974;-92
2022/10/14 00:24:04;;;;;;;48.20;32.00;;;;;;;7.46;100.00;99085.55;2228922;79;21527;-91
2022/10/14 00:27:04;;;;;;;48.02;31.60;;;;;;;7.44;100.00;99091.89;2228658;79;21205;-92
2022/10/14 00:30:05;;;;;;;48.92;31.73;;;;;;;7.43;100.00;99089.78;2222208;79;21510;-91
2022/10/14 00:33:06;;;;;;;47.75;31.17;;;;;;;7.39;100.00;99097.54;2219414;80;20925;-92
2022/10/14 00:36:06;;;;;;;49.10;32.40;;;;;;;7.32;100.00;99093.44;2225857;80;20996;-92
2022/10/14 00:39:07;;;;;;;47.30;29.27;;;;;;;7.29;100.00;99091.59;2225753;80;20993;-91
2022/10/14 00:42:08;;;;;;;45.67;29.72;;;;;;;7.23;100.00;99095.63;2192118;80;21424;-93
2022/10/14 00:45:09;;;;;;;41.53;28.85;;;;;;;7.17;100.00;99091.00;2187211;81;21043;-92
2022/10/14 00:48:09;;;;;;;47.78;30.62;;;;;;;7.12;100.00;99090.62;2186984;81;21519;-93
2022/10/14 00:51:10;;;;;;;42.88;27.77;;;;;;;7.05;100.00;99085.69;2206388;80;21385;-92
2022/10/14 00:54:11;;;;;;;43.35;28.15;;;;;;;6.98;100.00;99079.42;2192270;80;21467;-92
2022/10/14 00:57:11;;;;;;;48.80;29.52;;;;;;;6.92;100.00;99083.42;2187275;81;21483;-92
2022/10/14 01:00:12;;;;;;;47.00;31.05;;;;;;;6.88;100.00;99072.17;2194015;80;20991;-92
2022/10/14 01:03:13;;;;;;;47.50;29.80;;;;;;;6.87;100.00;99073.95;2226059;80;21499;-91
2022/10/14 01:06:14;;;;;;;47.03;29.70;;;;;;;6.89;100.00;99065.52;2226031;80;20961;-92
2022/10/14 01:09:14;;;;;;;58.30;34.60;;;;;;;6.91;100.00;99064.05;2228773;79;21000;-91
2022/10/14 01:12:15;;;;;;;44.98;32.90;;;;;;;6.88;100.00;99059.97;2224173;79;21172;-90
2022/10/14 01:15:16;;;;;;;52.60;34.08;;;;;;;6.92;100.00;99060.00;2228536;79;20949;-92
2022/10/14 01:18:17;;;;;;;52.95;34.58;;;;;;;6.94;100.00;99057.24;2227327;78;20996;-91
2022/10/14 01:21:18;;;;;;;48.80;33.95;;;;;;;6.98;100.00;99062.02;2220912;80;20967;-92
2022/10/14 01:24:19;;;;;;;52.40;32.30;;;;;;;7.05;100.00;99075.27;2194171;78;20964;-92
2022/10/14 01:27:19;;;;;;;48.55;29.35;;;;;;;7.12;100.00;99059.37;2187131;79;21484;-92
2022/10/14 01:30:20;;;;;;;41.50;28.25;;;;;;;7.18;100.00;99048.36;2186429;80;21480;-92
2022/10/14 01:33:21;;;;;;;47.85;29.60;;;;;;;7.23;100.00;99051.35;2206991;80;20948;-92
2022/10/14 01:36:21;;;;;;;40.05;26.05;;;;;;;7.28;100.00;99043.89;2221983;79;20922;-92
2022/10/14 01:39:22;;;;;;;47.15;30.97;;;;;;;7.35;100.00;99046.72;2217126;79;20991;-91
2022/10/14 01:42:23;;;;;;;48.65;29.50;;;;;;;7.39;100.00;99054.55;2184073;80;20980;-93
2022/10/14 01:45:23;;;;;;;48.10;30.82;;;;;;;7.45;100.00;99046.63;2183436;81;21537;-92
2022/10/14 01:48:24;;;;;;;51.50;32.98;;;;;;;7.48;100.00;99040.62;2183335;82;21591;-93
2022/10/14 01:51:25;;;;;;;44.40;30.90;;;;;;;7.53;100.00;99041.00;2183615;81;21012;-92
2022/10/14 01:54:26;;;;;;;45.75;32.15;;;;;;;7.58;100.00;99049.64;2191617;80;20941;-92
2022/10/14 01:57:26;;;;;;;46.95;32.95;;;;;;;7.63;100.00;99046.11;2222198;79;20972;-92
2022/10/14 02:00:27;;;;;;;49.55;30.32;;;;;;;7.68;100.00;99047.76;2224029;79;20960;-92
2022/10/14 02:03:28;;;;;;;46.35;29.52;;;;;;;7.72;100.00;99041.28;2222209;79;20941;-92
2022/10/14 02:06:29;;;;;;;42.27;28.23;;;;;;;7.74;100.00;99038.52;2222301;79;21270;-92
2022/10/14 02:09:29;;;;;;;50.48;29.37;;;;;;;7.73;100.00;99038.19;2197644;79;21031;-92
2022/10/14 02:12:30;;;;;;;45.85;28.95;;;;;;;7.74;100.00;99040.64;2187724;80;20969;-90
2022/10/14 02:15:31;;;;;;;42.75;27.45;;;;;;;7.75;100.00;99029.23;2185917;81;21049;-92
2022/10/14 02:18:31;;;;;;;46.73;30.25;;;;;;;7.77;100.00;99032.99;2184267;81;21507;-92
2022/10/14 02:21:32;;;;;;;40.78;26.42;;;;;;;7.77;100.00;99037.72;2184208;81;21448;-91
2022/10/14 02:24:33;;;;;;;41.50;27.42;;;;;;;7.76;100.00;99030.88;2214361;80;20957;-91
2022/10/14 02:27:34;;;;;;;41.08;27.20;;;;;;;7.76;100.00;99030.05;2224505;80;21005;-92
2022/10/14 02:30:34;;;;;;;45.90;30.23;;;;;;;7.74;100.00;99026.79;2230476;78;21017;-92
2022/10/14 02:33:35;;;;;;;46.65;30.95;;;;;;;7.73;100.00;99024.67;2257176;79;20996;-91
2022/10/14 02:36:36;;;;;;;44.73;28.62;;;;;;;7.76;100.00;99030.05;2257019;79;20996;-91
2022/10/14 02:39:37;;;;;;;41.90;28.70;;;;;;;7.73;100.00;99017.34;2256945;78;20973;-92
2022/10/14 02:42:37;;;;;;;40.33;28.45;;;;;;;7.72;100.00;99015.22;2230300;79;20976;-91
2022/10/14 02:45:38;;;;;;;45.63;29.67;;;;;;;7.73;100.00;99018.64;2217319;80;20977;-92
2022/10/14 02:48:39;;;;;;;49.50;30.92;;;;;;;7.70;100.00;99023.69;2217161;80;21027;-92
2022/10/14 02:51:39;;;;;;;49.30;30.82;;;;;;;7.69;100.00;99022.05;2228727;79;20992;-91
2022/10/14 02:54:40;;;;;;;46.25;28.65;;;;;;;7.67;100.00;99015.66;2257169;79;21453;-91
2022/10/14 02:57:41;;;;;;;43.75;28.57;;;;;;;7.64;100.00;99019.08;2247922;79;21020;-91
2022/10/14 03:00:42;;;;;;;48.92;32.45;;;;;;;7.60;100.00;99015.16;2218003;79;21441;-91
2022/10/14 03:03:43;;;;;;;51.90;31.30;;;;;;;7.61;100.00;99022.00;2217419;80;21752;-92
2022/10/14 03:06:43;;;;;;;51.77;31.55;;;;;;;7.59;100.00;99020.85;2217336;80;20997;-91
2022/10/14 03:09:44;;;;;;;45.00;29.55;;;;;;;7.56;100.00;99022.93;2217350;79;21021;-91
2022/10/14 03:12:45;;;;;;;41.10;28.55;;;;;;;7.52;100.00;99018.52;2225285;79;20913;-91
2022/10/14 03:15:46;;;;;;;50.00;30.72;;;;;;;7.49;100.00;99010.98;2221155;79;21436;-92
2022/10/14 03:18:47;;;;;;;50.85;31.85;;;;;;;7.45;100.00;99015.36;2218299;80;20976;-92
2022/10/14 03:21:48;;;;;;;47.53;31.07;;;;;;;7.39;100.00;99007.66;2229130;79;20984;-92
2022/10/14 03:24:48;;;;;;;48.50;29.98;;;;;;;7.35;100.00;99014.97;2256049;79;20933;-92
2022/10/14 03:27:49;;;;;;;52.17;31.95;;;;;;;7.33;100.00;99007.80;2257161;79;20980;-93
2022/10/14 03:30:50;;;;;;;43.73;30.45;;;;;;;7.29;100.00;99001.73;2248165;79;21600;-91
2022/10/14 03:33:50;;;;;;;48.60;29.65;;;;;;;7.24;100.00;99004.80;2184922;79;21032;-92
2022/10/14 03:36:51;;;;;;;48.00;31.02;;;;;;;7.19;100.00;98995.80;2183656;81;20992;-92
2022/10/14 03:39:52;;;;;;;55.83;36.20;;;;;;;7.15;100.00;98996.59;2183339;81;20925;-91
2022/10/14 03:42:52;;;;;;;52.48;32.67;;;;;;;7.17;100.00;98991.23;2205746;80;20914;-92
2022/10/14 03:45:53;;;;;;;46.73;31.07;;;;;;;7.15;100.00;98995.78;2221610;80;21072;-92
2022/10/14 03:48:54;;;;;;;44.20;30.30;;;;;;;7.13;100.00;98994.59;2221938;80;21045;-92
2022/10/14 03:51:55;;;;;;;44.53;30.90;;;;;;;7.13;100.00;99001.95;2217006;79;20996;-92
2022/10/14 03:54:55;;;;;;;45.45;30.50;;;;;;;7.15;100.00;98991.38;2224587;79;20984;-91
2022/10/14 03:57:56;;;;;;;47.60;30.75;;;;;;;7.19;100.00;98993.19;2227012;80;20902;-90
2022/10/14 04:00:57;;;;;;;52.80;32.38;;;;;;;7.21;100.00;98992.55;2227040;80;21017;-89
2022/10/14 04:03:57;;;;;;;45.98;30.48;;;;;;;7.22;100.00;98987.18;2188016;80;21035;-92
2022/10/14 04:06:58;;;;;;;49.00;28.92;;;;;;;7.25;100.00;98984.30;2183768;81;20996;-92
2022/10/14 04:09:59;;;;;;;48.50;30.85;;;;;;;7.27;100.00;98978.92;2184067;82;21051;-91
2022/10/14 04:13:00;;;;;;;52.60;33.38;;;;;;;7.29;100.00;98981.70;2186681;80;20933;-90
2022/10/14 04:16:01;;;;;;;46.08;31.12;;;;;;;7.31;100.00;98981.55;2188152;80;20976;-91
2022/10/14 04:19:01;;;;;;;43.20;29.27;;;;;;;7.34;100.00;98982.08;2189077;80;20980;-93
2022/10/14 04:22:02;;;;;;;48.63;29.85;;;;;;;7.37;100.00;98988.77;2194680;80;20936;-92
2022/10/14 04:25:03;;;;;;;49.33;31.42;;;;;;;7.37;100.00;98980.47;2226307;79;21487;-92
2022/10/14 04:28:04;;;;;;;44.53;29.82;;;;;;;7.39;100.00;98987.64;2225861;79;21012;-92
2022/10/14 04:31:05;;;;;;;44.00;29.52;;;;;;;7.43;100.00;98983.44;2224198;79;21096;-92
2022/10/14 04:34:05;;;;;;;45.90;28.98;;;;;;;7.44;100.00;98978.08;2190801;80;21045;-92
2022/10/14 04:37:06;;;;;;;44.20;29.37;;;;;;;7.47;100.00;98980.36;2187649;81;20998;-92
2022/10/14 04:40:07;;;;;;;43.33;27.75;;;;;;;7.49;100.00;98980.20;2187752;81;21563;-93
2022/10/14 04:43:08;;;;;;;45.28;30.15;;;;;;;7.51;100.00;98979.59;2190167;80;20958;-94
2022/10/14 04:46:08;;;;;;;50.28;30.68;;;;;;;7.50;100.00;98981.84;2187794;81;20970;-90
2022/10/14 04:49:09;;;;;;;48.20;32.58;;;;;;;7.53;100.00;98977.16;2187593;81;21036;-93
2022/10/14 04:52:10;;;;;;;46.77;31.35;;;;;;;7.57;100.00;98973.26;2198444;80;21438;-91
2022/10/14 04:55:11;;;;;;;36.17;27.17;;;;;;;7.58;100.00;98972.28;2226474;80;20971;-92
2022/10/14 04:58:12;;;;;;;49.35;32.53;;;;;;;7.61;100.00;98972.48;2226303;79;21065;-94
2022/10/14 05:01:12;;;;;;;44.45;31.70;;;;;;;7.62;100.00;98971.51;2223110;79;21612;-93
2022/10/14 05:04:13;;;;;;;45.60;29.15;;;;;;;7.63;100.00;98969.23;2204576;80;20990;-94
2022/10/14 05:07:14;;;;;;;42.85;28.02;;;;;;;7.66;100.00;98970.22;2226750;79;20994;-93
2022/10/14 05:10:14;;;;;;;45.75;29.75;;;;;;;7.67;100.00;98959.63;2211537;80;21026;-93
2022/10/14 05:13:15;;;;;;;48.23;33.08;;;;;;;7.70;100.00;98959.83;2192699;79;21262;-94
2022/10/14 05:16:16;;;;;;;45.78;30.45;;;;;;;7.72;100.00;98959.67;2214263;79;20962;-94
2022/10/14 05:19:16;;;;;;;51.73;33.60;;;;;;;7.75;100.00;98959.34;2209896;80;20983;-93
2022/10/14 05:22:17;;;;;;;49.27;31.37;;;;;;;7.76;100.00;98950.06;2208159;81;20994;-93
2022/10/14 05:25:18;;;;;;;53.13;33.53;;;;;;;7.79;100.00;98954.98;2207661;81;21094;-93
2022/10/14 05:28:18;;;;;;;51.73;32.60;;;;;;;7.82;100.00;98956.45;2207673;81;20998;-94
2022/10/14 05:31:19;;;;;;;47.65;32.60;;;;;;;7.86;100.00;98955.16;2212747;79;20946;-93
2022/10/14 05:34:20;;;;;;;49.23;33.25;;;;;;;7.92;100.00;98957.97;2231823;79;21004;-93
2022/10/14 05:37:20;;;;;;;51.48;34.65;;;;;;;7.97;100.00;98957.52;2204491;80;20953;-93
2022/10/14 05:40:21;;;;;;;55.75;34.50;;;;;;;8.02;100.00;98955.23;2203940;80;20948;-93
2022/10/14 05:43:23;;;;;;;52.17;32.70;;;;;;;8.04;100.00;98961.10;2193883;81;21095;-94
2022/10/14 05:46:24;;;;;;;43.13;30.37;;;;;;;8.05;100.00;98962.77;2194020;81;21551;-93
2022/10/14 05:49:24;;;;;;;49.23;32.53;;;;;;;8.09;100.00;98963.25;2195855;80;20937;-94
2022/10/14 05:52:25;;;;;;;47.60;32.75;;;;;;;8.14;100.00;98953.18;2194005;81;21031;-94
2022/10/14 05:55:26;;;;;;;43.85;30.65;;;;;;;8.22;100.00;98956.60;2194510;81;20945;-94
2022/10/14 05:58:27;;;;;;;46.00;32.70;;;;;;;8.25;100.00;98955.49;2193821;81;21051;-94
2022/10/14 06:01:28;;;;;;;52.80;32.15;;;;;;;8.23;100.00;98954.35;2204134;80;21405;-94
2022/10/14 06:04:28;;;;;;;46.10;31.55;;;;;;;8.23;100.00;98955.66;2231229;80;21441;-94
2022/10/14 06:07:29;;;;;;;44.33;31.00;;;;;;;8.23;100.00;98956.14;2198596;80;21016;-94
2022/10/14 06:10:30;;;;;;;50.65;30.37;;;;;;;8.24;100.00;98962.50;2201291;80;20964;-95
2022/10/14 06:13:30;;;;;;;46.18;31.97;;;;;;;8.27;100.00;98962.66;2212851;80;20961;-93
2022/10/14 06:16:31;;;;;;;43.05;31.50;;;;;;;8.31;100.00;98965.77;2222894;80;20999;-89
2022/10/14 06:19:32;;;;;;;43.38;31.45;;;;;;;8.34;100.00;98966.77;2197386;81;20952;-91
2022/10/14 06:22:32;;;;;;;48.80;30.95;;;;;;;8.43;100.00;98963.23;2203300;80;21396;-90
2022/10/14 06:25:33;;;;;;;44.25;31.73;;;;;;;8.52;100.00;98963.09;2233719;80;20988;-91
2022/10/14 06:28:34;;;;;;;44.27;31.02;;;;;;;8.65;100.00;98965.22;2233352;80;20952;-92
2022/10/14 06:31:34;;;;;;;52.40;33.30;;;;;;;8.76;100.00;98960.17;2233177;79;21047;-92
2022/10/14 06:34:35;;;;;;;48.00;31.73;;;;;;;8.88;100.00;98969.83;2222614;78;21041;-86
2022/10/14 06:37:36;;;;;;;51.20;34.08;;;;;;;8.95;100.00;98966.88;2210100;80;20954;-88
2022/10/14 06:40:37;;;;;;;50.67;36.38;;;;;;;9.04;100.00;98965.41;2210218;80;20997;-88
2022/10/14 06:43:37;;;;;;;52.90;36.88;;;;;;;9.11;100.00;98962.96;2209998;81;21072;-89
2022/10/14 06:46:38;;;;;;;45.38;33.90;;;;;;;9.22;100.00;98964.42;2210077;80;20930;-88
2022/10/14 06:49:39;;;;;;;46.13;33.13;;;;;;;9.31;100.00;98962.13;2209938;81;21006;-89
2022/10/14 06:52:39;;;;;;;45.85;34.67;;;;;;;9.42;100.00;98968.34;2215572;80;20992;-89
2022/10/14 06:55:40;;;;;;;46.05;32.00;;;;;;;9.55;100.00;98968.63;2140404;83;21432;-88
2022/10/14 06:58:41;;;;;;;50.05;33.95;;;;;;;9.71;100.00;98972.20;2103848;85;21015;-88
2022/10/14 07:01:42;;;;;;;51.42;35.45;;;;;;;9.89;100.00;98973.62;2127931;84;20991;-87
2022/10/14 07:04:42;;;;;;;47.10;35.68;;;;;;;10.03;100.00;98973.39;2141604;83;21036;-88
2022/10/14 07:07:43;;;;;;;45.67;33.40;;;;;;;10.21;100.00;98966.11;2141045;82;20983;-88
2022/10/14 07:10:45;;;;;;;43.90;33.98;;;;;;;10.36;100.00;98964.13;2139588;83;21095;-88
2022/10/14 07:13:46;;;;;;;46.95;33.53;;;;;;;10.36;100.00;98964.13;2178945;82;21082;-89
2022/10/14 07:16:47;;;;;;;43.20;31.50;;;;;;;10.44;100.00;98970.13;2141727;83;21538;-89
2022/10/14 07:19:47;;;;;;;46.18;31.75;;;;;;;10.51;100.00;98968.93;2143420;83;21042;-88
2022/10/14 07:22:48;;;;;;;50.35;33.83;;;;;;;10.58;100.00;98971.19;2167493;82;20945;-89
2022/10/14 07:25:49;;;;;;;46.00;33.08;;;;;;;10.65;100.00;98974.75;2181406;82;21006;-90
2022/10/14 07:28:50;;;;;;;42.43;31.55;;;;;;;10.75;100.00;98978.45;2179856;82;21019;-90
2022/10/14 07:31:50;;;;;;;46.60;33.20;;;;;;;10.86;100.00;98981.97;2168630;82;21472;-90
2022/10/14 07:34:51;;;;;;;48.15;33.33;;;;;;;10.97;100.00;98976.80;2176940;80;21503;-88
2022/10/14 07:37:52;;;;;;;42.58;32.90;;;;;;;10.98;100.00;98976.66;2131721;84;21032;-93
2022/10/14 07:40:52;;;;;;;43.45;31.90;;;;;;;10.92;100.00;98983.08;2142349;83;21021;-91
2022/10/14 07:43:53;;;;;;;48.20;34.65;;;;;;;10.87;100.00;98986.70;2141859;83;21029;-91
2022/10/14 07:46:54;;;;;;;51.68;37.23;;;;;;;10.86;100.00;98977.22;2144131;82;20966;-88
2022/10/14 07:49:55;;;;;;;44.70;33.92;;;;;;;10.93;100.00;98976.84;2141405;83;21018;-89
2022/10/14 07:52:56;;;;;;;47.60;34.40;;;;;;;10.99;100.00;98980.09;2141343;83;20998;-88
2022/10/14 07:55:57;;;;;;;49.85;35.38;;;;;;;11.02;100.00;98973.98;2141612;83;20982;-88
2022/10/14 07:58:58;;;;;;;47.27;33.65;;;;;;;11.08;100.00;98973.30;2141166;83;21070;-89
2022/10/14 08:01:59;;;;;;;46.00;34.90;;;;;;;11.14;100.00;98973.06;2141720;83;21034;-88
2022/10/14 08:05:00;;;;;;;50.60;38.85;;;;;;;11.21;100.00;98972.69;2141669;83;21170;-89
2022/10/14 08:08:02;;;;;;;49.03;35.13;;;;;;;11.31;100.00;98977.19;2141849;83;21018;-89
2022/10/14 08:11:03;;;;;;;49.90;35.80;;;;;;;11.36;100.00;98971.42;2142084;81;21073;-89
2022/10/14 08:14:04;;;;;;;52.65;35.25;;;;;;;11.46;100.00;98974.59;2141551;83;21481;-89
2022/10/14 08:17:05;;;;;;;45.65;36.10;;;;;;;11.55;100.00;98976.64;2141856;83;21018;-89
2022/10/14 08:20:06;;;;;;;45.83;33.67;;;;;;;11.68;100.00;98978.95;2143171;83;21540;-89
2022/10/14 08:23:06;;;;;;;55.15;35.48;;;;;;;11.81;100.00;98987.55;2145143;83;20981;-89
2022/10/14 08:26:07;;;;;;;49.98;36.93;;;;;;;11.90;100.00;98981.72;2144103;83;21061;-89
2022/10/14 08:29:08;;;;;;;52.67;36.03;;;;;;;12.02;100.00;98982.88;2141879;83;21029;-89
2022/10/14 08:32:08;;;;;;;55.90;37.90;;;;;;;12.19;100.00;98975.62;2142041;83;20990;-88
2022/10/14 08:35:09;;;;;;;57.75;40.73;;;;;;;12.36;100.00;98975.73;2143021;82;21054;-89
2022/10/14 08:38:10;;;;;;;55.83;38.38;;;;;;;12.46;100.00;98964.94;2142588;83;21006;-89
2022/10/14 08:41:11;;;;;;;47.45;36.73;;;;;;;12.61;100.00;98976.20;2142073;83;21037;-90
2022/10/14 08:44:11;;;;;;;51.50;37.60;;;;;;;12.62;100.00;98971.75;2142321;83;21651;-89
2022/10/14 08:47:13;;;;;;;51.10;35.80;;;;;;;12.62;100.00;98975.23;2142223;83;20991;-89
2022/10/14 08:50:13;;;;;;;47.27;35.73;;;;;;;12.63;100.00;98974.72;2142215;83;21114;-90
2022/10/14 08:53:14;;;;;;;55.65;37.23;;;;;;;12.68;100.00;98971.02;2142152;83;20981;-88
2022/10/14 08:56:15;;;;;;;50.83;38.88;;;;;;;12.75;100.00;98970.09;2142296;83;21568;-90
2022/10/14 08:59:16;;;;;;;48.70;37.05;;;;;;;12.92;100.00;98961.47;2142163;83;21017;-90
2022/10/14 09:02:16;;;;;;;51.18;39.55;;;;;;;13.13;100.00;98961.13;2142287;83;20998;-90
2022/10/14 09:05:17;;;;;;;46.18;37.83;;;;;;;13.29;100.00;98966.97;2142055;83;21018;-90
2022/10/14 09:08:18;;;;;;;64.10;37.90;;;;;;;13.38;100.00;98961.88;2142154;83;21581;-90
2022/10/14 09:11:19;;;;;;;48.25;36.55;;;;;;;13.50;100.00;98963.47;2141634;83;21065;-90
2022/10/14 09:14:20;;;;;;;46.37;36.03;;;;;;;13.61;100.00;98967.38;2142198;83;21539;-90
2022/10/14 09:17:21;;;;;;;50.30;36.75;;;;;;;13.69;100.00;98961.97;2141965;83;21017;-90
2022/10/14 09:20:21;;;;;;;48.42;37.70;;;;;;;13.80;100.00;98969.82;2142862;83;20998;-90
2022/10/14 09:23:22;;;;;;;51.80;39.50;;;;;;;13.86;100.00;98967.73;2146658;83;21017;-90
2022/10/14 09:26:23;;;;;;;58.85;40.70;;;;;;;13.91;100.00;98965.34;2143171;83;21036;-90
2022/10/14 09:29:24;;;;;;;48.30;36.03;;;;;;;13.89;100.00;98973.41;2142442;83;20990;-90
2022/10/14 09:32:25;;;;;;;49.90;37.58;;;;;;;13.85;100.00;98977.45;2142471;83;21537;-90
2022/10/14 09:35:26;;;;;;;53.25;38.55;;;;;;;13.77;100.00;98973.66;2139153;83;21011;-90
2022/10/14 09:38:27;;;;;;;51.83;38.73;;;;;;;13.70;100.00;98970.67;2134546;83;21046;-90
2022/10/14 09:41:28;;;;;;;53.00;38.55;;;;;;;13.67;100.00;98967.94;2134264;83;21481;-89
2022/10/14 09:44:28;;;;;;;53.23;38.35;;;;;;;13.64;100.00;98970.45;2135848;83;21525;-90
2022/10/14 09:47:29;;;;;;;55.95;39.33;;;;;;;13.62;100.00;98967.21;2134510;83;20986;-90
2022/10/14 09:50:30;;;;;;;54.00;39.48;;;;;;;13.55;100.00;98972.92;2134243;83;20989;-89
2022/10/14 09:53:31;;;;;;;50.40;38.45;;;;;;;13.53;100.00;98973.63;2134158;83;20999;-89
2022/10/14 09:56:33;;;;;;;55.30;40.58;;;;;;;13.54;100.00;98966.55;2134332;83;21017;-89
2022/10/14 09:59:34;;;;;;;50.67;38.00;;;;;;;13.57;100.00;98961.70;2134156;83;21062;-89
2022/10/14 10:02:35;;;;;;;51.75;38.55;;;;;;;13.61;100.00;98962.92;2134255;83;21089;-89
2022/10/14 10:05:35;;;;;;;52.35;38.00;;;;;;;13.68;100.00;98970.06;2134284;83;21029;-89
2022/10/14 10:08:36;;;;;;;54.95;36.65;;;;;;;13.78;100.00;98966.58;2134350;83;21458;-90
2022/10/14 10:11:37;;;;;;;51.00;36.83;;;;;;;13.89;100.00;98966.83;2153155;83;21579;-91
2022/10/14 10:14:38;;;;;;;52.15;38.73;;;;;;;14.01;100.00;98963.17;2153609;83;21100;-90
2022/10/14 10:17:39;;;;;;;53.70;41.08;;;;;;;14.11;100.00;98953.09;2153801;83;21501;-88
2022/10/14 10:20:42;;;;;;;63.55;50.60;;;;;;;14.19;100.00;98948.97;2109480;83;21128;-91
2022/10/14 10:23:42;;;;;;;70.17;53.17;;;;;;;14.24;100.00;98949.68;2112165;84;21023;-93
2022/10/14 10:26:49;;;;;;;59.38;42.93;;;;;;;14.37;100.00;98949.74;2112511;83;21075;-85
2022/10/14 10:29:50;;;;;;;51.53;38.48;;;;;;;14.55;100.00;98952.36;2112852;84;21181;-91
2022/10/14 10:32:51;;;;;;;54.10;37.35;;;;;;;14.70;100.00;98950.34;2110794;84;21282;-88
2022/10/14 10:35:52;;;;;;;46.75;38.00;;;;;;;14.84;100.00;98950.69;2166948;80;21009;-89
2022/10/14 10:38:53;;;;;;;46.23;35.92;;;;;;;15.04;100.00;98946.23;2185310;81;21020;-94
2022/10/14 10:41:57;;;;;;;47.70;35.63;;;;;;;15.25;100.00;98940.44;2185022;81;21043;-84
2022/10/14 10:44:57;;;;;;;48.02;35.20;;;;;;;15.44;100.00;98937.48;2185094;81;20949;-85
2022/10/14 10:48:00;;;;;;;45.70;33.00;;;;;;;15.63;100.00;98934.02;2184649;81;20957;-84
2022/10/14 10:51:00;;;;;;;41.58;32.83;;;;;;;15.81;100.00;98930.22;2183641;81;21019;-88
2022/10/14 10:54:01;;;;;;;39.55;30.10;;;;;;;15.92;100.00;98933.55;2183822;81;21000;-88
2022/10/14 10:57:02;;;;;;;39.13;31.07;;;;;;;15.99;100.00;98933.52;2184192;81;20952;-91
2022/10/14 11:00:04;;;;;;;43.95;33.45;;;;;;;15.96;100.00;98930.48;2183766;81;21052;-88
2022/10/14 11:03:05;;;;;;;39.88;29.65;;;;;;;15.96;100.00;98917.28;2184309;81;21589;-89
2022/10/14 11:06:06;;;;;;;41.60;31.30;;;;;;;15.96;100.00;98919.42;2184360;81;20953;-87
2022/10/14 11:12:26;;;;;;;42.45;32.03;;;;;;;16.05;100.00;98906.27;2185841;82;21012;-94
2022/10/14 11:15:27;;;;;;;38.30;31.73;;;;;;;16.06;100.00;98909.73;2185351;81;20981;-87
2022/10/14 11:18:28;;;;;;;40.75;29.82;;;;;;;16.05;100.00;98914.71;2184239;81;20988;-88
2022/10/14 11:21:29;;;;;;;36.08;29.20;;;;;;;16.09;100.00;98910.14;2183713;81;20988;-92
2022/10/14 11:24:30;;;;;;;39.35;28.57;;;;;;;16.18;100.00;98906.72;2185902;81;21449;-84
2022/10/14 11:27:31;;;;;;;34.45;28.12;;;;;;;16.17;100.00;98902.45;2186119;81;21008;-83
2022/10/14 11:30:32;;;;;;;37.23;25.62;;;;;;;16.16;100.00;98898.20;2184860;81;21007;-85
2022/10/14 11:33:32;;;;;;;40.55;26.90;;;;;;;16.20;100.00;98893.61;2186645;81;20988;-86
2022/10/14 11:36:33;;;;;;;38.85;27.17;;;;;;;16.25;100.00;98889.00;2186118;80;21010;-89
2022/10/14 11:39:34;;;;;;;37.95;27.70;;;;;;;16.31;100.00;98886.84;2187575;81;20935;-89
2022/10/14 11:42:37;;;;;;;34.63;26.95;;;;;;;16.32;100.00;98878.41;2188280;81;20988;-86
2022/10/14 11:45:37;;;;;;;39.35;27.62;;;;;;;16.36;100.00;98873.80;2189564;81;21057;-88
2022/10/14 11:48:38;;;;;;;30.25;22.98;;;;;;;16.46;100.00;98869.39;2188705;81;20958;-90
2022/10/14 11:51:39;;;;;;;31.35;24.07;;;;;;;16.55;100.00;98874.72;2189067;81;21022;-87
2022/10/14 11:54:41;;;;;;;32.73;22.82;;;;;;;16.66;100.00;98867.41;2187853;81;21509;-90
2022/10/14 11:57:42;;;;;;;29.67;21.73;;;;;;;16.76;100.00;98867.77;2187648;81;21060;-90
2022/10/14 12:00:42;;;;;;;31.90;22.52;;;;;;;16.86;100.00;98861.99;2187440;81;21029;-90
2022/10/14 12:03:43;;;;;;;27.32;21.23;;;;;;;16.94;100.00;98864.38;2187805;81;21092;-89
2022/10/14 12:06:44;;;;;;;41.23;23.85;;;;;;;17.00;100.00;98870.09;2187968;81;21517;-90
2022/10/14 12:09:45;;;;;;;36.00;23.10;;;;;;;17.01;100.00;98861.67;2187410;81;21374;-91
2022/10/14 12:12:46;;;;;;;29.63;21.15;;;;;;;16.99;100.00;98850.48;2187298;81;21461;-90
2022/10/14 12:15:46;;;;;;;27.32;21.07;;;;;;;16.93;100.00;98857.98;2187275;81;20998;-90
2022/10/14 12:18:47;;;;;;;26.85;21.87;;;;;;;16.92;100.00;98851.88;2187306;81;21524;-90
2022/10/14 12:21:48;;;;;;;26.00;21.02;;;;;;;17.04;100.00;98849.33;2187440;81;20943;-89
2022/10/14 12:24:49;;;;;;;24.95;20.02;;;;;;;17.11;100.00;98848.76;2189403;81;20990;-91
2022/10/14 12:27:51;;;;;;;25.12;19.77;;;;;;;17.25;100.00;98845.45;2191612;81;21012;-85
2022/10/14 12:30:51;;;;;;;24.27;19.98;;;;;;;17.33;100.00;98838.55;2188070;81;21060;-88
2022/10/14 12:33:52;;;;;;;24.57;19.02;;;;;;;17.43;100.00;98835.39;2188008;81;20966;-92
2022/10/14 12:36:53;;;;;;;34.45;19.60;;;;;;;17.49;100.00;98837.98;2185618;80;21514;-91
2022/10/14 12:39:54;;;;;;;25.82;19.30;;;;;;;17.59;100.00;98840.91;2184751;81;21003;-90
2022/10/14 12:42:56;;;;;;;29.15;20.75;;;;;;;17.71;100.00;98844.97;2184731;81;21004;-92
2022/10/14 12:45:57;;;;;;;24.20;19.45;;;;;;;17.71;100.00;98843.65;2184246;81;20972;-94
2022/10/14 12:48:59;;;;;;;19.77;16.70;;;;;;;17.66;100.00;98836.88;2184002;81;21039;-91
2022/10/14 12:52:00;;;;;;;19.90;16.90;;;;;;;17.59;100.00;98838.78;2183657;81;21511;-92
2022/10/14 12:55:03;;;;;;;25.15;19.25;;;;;;;17.49;100.00;98838.49;2183642;81;21526;-92
2022/10/14 12:58:03;;;;;;;30.68;22.58;;;;;;;17.45;100.00;98834.66;2183551;81;21032;-88
2022/10/14 13:01:04;;;;;;;34.75;24.37;;;;;;;17.42;100.00;98835.11;2183344;81;20969;-89
2022/10/14 13:04:05;;;;;;;41.10;27.60;;;;;;;17.40;100.00;98833.20;2183530;81;21016;-90
2022/10/14 13:07:07;;;;;;;41.15;25.70;;;;;;;17.42;100.00;98832.45;2183710;81;21008;-89
2022/10/14 13:10:08;;;;;;;40.95;26.37;;;;;;;17.44;100.00;98833.84;2184147;81;21032;-89
2022/10/14 13:13:10;;;;;;;32.60;23.02;;;;;;;17.53;100.00;98835.17;2183189;81;21023;-87
2022/10/14 13:16:11;;;;;;;34.65;24.45;;;;;;;17.69;100.00;98828.47;2184079;81;21020;-87
2022/10/14 13:19:12;;;;;;;27.07;18.87;;;;;;;17.85;100.00;98827.90;2184196;81;20991;-88
2022/10/14 13:22:24;;;;;;;24.25;18.73;;;;;;;17.94;100.00;98825.75;2184424;81;21606;-87
2022/10/14 13:25:27;;;;;;;23.22;18.42;;;;;;;17.93;100.00;98820.68;2185980;81;21004;-87
2022/10/14 13:28:30;;;;;;;29.20;23.67;;;;;;;17.88;100.00;98822.66;2187195;82;21000;-89
2022/10/14 13:31:31;;;;;;;32.95;24.55;;;;;;;17.82;100.00;98820.37;2185093;81;20968;-87
2022/10/14 13:34:33;;;;;;;30.08;20.35;;;;;;;17.85;100.00;98821.80;2183869;81;20957;-89
2022/10/14 13:37:34;;;;;;;28.25;21.40;;;;;;;17.88;100.00;98821.34;2183472;80;20996;-88
2022/10/14 13:40:35;;;;;;;25.08;17.25;;;;;;;17.90;100.00;98816.62;2183463;81;21000;-89
2022/10/14 13:43:36;;;;;;;20.85;16.35;;;;;;;17.92;100.00;98819.84;2183409;81;21491;-90
2022/10/14 13:46:36;;;;;;;25.02;16.57;;;;;;;17.89;100.00;98813.16;2183373;81;20945;-89
2022/10/14 13:49:40;;;;;;;22.35;17.67;;;;;;;17.82;100.00;98811.63;2183425;81;21036;-93
2022/10/14 13:52:41;;;;;;;21.62;17.82;;;;;;;17.73;100.00;98810.32;2183271;81;21028;-88